Hauptseite
METAR-TAF:

METAR-TAF

Flughäfen :

Pocono Mountains Municipal Airport

Mount Pocono, Pennsylvania, Vereinigte Staaten

Breite: 41-08-20N, Länge: 075-23-46W, Höhe: 584 m

Beobachtung

Neuester Wetterbericht von vor 23 Minuten, um 01:53 UTC
Wind 9 kt aus Ost, Böen bis zu 17 kt
Temperatur 3°C
Luftfeuchtigkeit 100%
Luftdruck 1016 hPa
Sichtweite: 0.4 km
Nebel

METAR: KMPO 290153Z AUTO 08009G17KT 1/4SM FG VV001 03/03 A2999 RMK AO2 RAE0057B15E31 SLP171 P0001 T00330028 $

Zeit: 22:16 (02:16 UTC)


TAF: fehlend

Wetterbeobachtungen und Prognosen von mehr als 4000 Flughäfen (METAR und TAF Bericht).

Die verfügbaren Stationen werden durch gelbe und rote Markierungen auf der Karte dargestellt.

Führen Sie die Maus auf sie, um den Namen der Station zu sehen.

Darauf klicken, um die Beobachtung von Wetterbeobachtungen und Prognosen zu sehen.

Um die Karte zu ändern : klicken Sie auf den grünen Tasten mit einem schwarzen Kreuz Zum Vergrößern, auf den grünen Button mit einem Gedankenstrich zu verkleinern, oder auf die grünen Pfeile für benachbarte Karten.


METAR-TAF: